Time;durP1;ratioP1;P1;durP2;ratioP2;P2;SDS_P1;SDS_P2;PMS_P1;PMS_P2;Temp;Humidity;BMP_temperature;BMP_pressure;BME280_temperature;BME280_humidity;BME280_pressure;Samples;Min_cycle;Max_cycle;Signal;HPM_P1;HPM_P2
2021/11/06 00:00:06;;;;;;;;;;;;;;;;;;341799;29;926;-74
2021/11/06 00:00:17;;;;;;;;;;;;;;;;;;342773;28;1453;-75
2021/11/06 00:00:34;;;;;;;;;;;;;;;;;;343761;28;822;-74
2021/11/06 00:00:44;;;;;;;;;;;;;;;;;;345116;28;925;-74
2021/11/06 00:00:55;;;;;;;;;;;;;;;;;;345877;28;989;-75
2021/11/06 00:01:05;;;;;;;;;;;;;;;;;;344473;28;1172;-74
2021/11/06 00:01:15;;;;;;;;;;;;;;;;;;344444;28;918;-74
2021/11/06 00:01:26;;;;;;;;;;;;;;;;;;344560;28;981;-74
2021/11/06 00:01:36;;;;;;;;;;;;;;;;;;344585;28;926;-75
2021/11/06 00:01:47;;;;;;;;;;;;;;;;;;343049;28;803;-74
2021/11/06 00:02:06;;;;;;;;;;;;;;;;;;341959;29;885;-74
2021/11/06 00:02:23;;;;;;;;;;;;;;;;;;343231;28;996;-74
2021/11/06 00:02:59;;;;;;;;;;;;;;;;;;343552;28;1024;-75
2021/11/06 00:03:10;;;;;;;;;;;;;;;;;;344519;28;926;-74
2021/11/06 00:03:20;;;;;;;;;;;;;;;;;;344457;28;1005;-75
2021/11/06 00:03:31;;;;;;;;;;;;;;;;;;344456;28;1477;-75
2021/11/06 00:03:41;;;;;;;;;;;;;;;;;;344710;28;932;-74
2021/11/06 00:03:51;;;;;;;;;;;;;;;;;;344510;28;858;-74
2021/11/06 00:04:28;;;;;;;;;;;;;;;;;;344604;28;842;-73
2021/11/06 00:04:38;;;;;;;;;;;;;;;;;;344135;28;1019;-74
2021/11/06 00:04:49;;;;;;;;;;;;;;;;;;344453;28;822;-73
2021/11/06 00:04:59;;;;;;;;;;;;;;;;;;344395;28;1419;-74
2021/11/06 00:05:09;;;;;;;;;;;;;;;;;;343279;28;1581;-73
2021/11/06 00:05:20;;;;;;;;;;;;;;;;;;343131;28;855;-74
2021/11/06 00:05:30;;;;;;;;;;;;;;;;;;343183;28;874;-74
2021/11/06 00:05:41;;;;;;;;;;;;;;;;;;344037;28;1009;-74
2021/11/06 00:05:51;;;;;;;;;;;;;;;;;;345688;28;925;-73
2021/11/06 00:06:29;;;;;;;;;;;;;;;;;;345848;28;831;-75
2021/11/06 00:06:44;;;;;;;;;;;;;;;;;;344583;28;1056;-75
2021/11/06 00:06:54;;;;;;;;;;;;;;;;;;341254;29;1082;-74
2021/11/06 00:07:04;;;;;;;;;;;;;;;;;;341085;29;898;-74
2021/11/06 00:07:15;;;;;;;;;;;;;;;;;;341737;29;816;-74
2021/11/06 00:07:26;;;;;;;;;;;;;;;;;;341944;29;815;-74
2021/11/06 00:07:36;;;;;;;;;;;;;;;;;;341859;29;973;-74
2021/11/06 00:07:47;;;;;;;;;;;;;;;;;;340512;29;946;-74
2021/11/06 00:07:57;;;;;;;;;;;;;;;;;;343238;28;985;-74
2021/11/06 00:08:07;;;;;;;;;;;;;;;;;;343262;28;977;-74
2021/11/06 00:08:18;;;;;;;;;;;;;;;;;;343251;28;938;-74
2021/11/06 00:08:29;;;;;;;;;;;;;;;;;;343221;28;922;-74
2021/11/06 00:08:39;;;;;;;;;;;;;;;;;;343171;28;981;-74
2021/11/06 00:08:49;;;;;;;;;;;;;;;;;;343751;28;1052;-74
2021/11/06 00:09:26;;;;;;;;;;;;;;;;;;344425;28;886;-73
2021/11/06 00:09:36;;;;;;;;;;;;;;;;;;345740;28;838;-74
2021/11/06 00:09:47;;;;;;;;;;;;;;;;;;345791;28;822;-74
2021/11/06 00:09:57;;;;;;;;;;;;;;;;;;345816;28;968;-74
2021/11/06 00:10:08;;;;;;;;;;;;;;;;;;345900;28;1036;-75
2021/11/06 00:10:19;;;;;;;;;;;;;;;;;;345883;28;989;-74
2021/11/06 00:10:35;;;;;;;;;;;;;;;;;;345604;28;1007;-74
2021/11/06 00:11:17;;;;;;;;;;;;;;;;;;344461;28;934;-75
2021/11/06 00:11:28;;;;;;;;;;;;;;;;;;344651;28;1059;-75
2021/11/06 00:11:38;;;;;;;;;;;;;;;;;;345807;28;961;-75
2021/11/06 00:11:49;;;;;;;;;;;;;;;;;;345832;28;989;-75
2021/11/06 00:11:59;;;;;;;;;;;;;;;;;;344525;28;1547;-74
2021/11/06 00:12:10;;;;;;;;;;;;;;;;;;344568;28;988;-74
2021/11/06 00:12:20;;;;;;;;;;;;;;;;;;344480;28;1918;-73
2021/11/06 00:12:30;;;;;;;;;;;;;;;;;;344552;28;834;-75
2021/11/06 00:12:41;;;;;;;;;;;;;;;;;;344579;28;894;-75
2021/11/06 00:12:52;;;;;;;;;;;;;;;;;;345634;28;1279;-74
2021/11/06 00:13:02;;;;;;;;;;;;;;;;;;345884;28;858;-74
2021/11/06 00:13:13;;;;;;;;;;;;;;;;;;345834;28;969;-75
2021/11/06 00:13:23;;;;;;;;;;;;;;;;;;345919;28;790;-74
2021/11/06 00:13:33;;;;;;;;;;;;;;;;;;345953;28;834;-74
2021/11/06 00:13:44;;;;;;;;;;;;;;;;;;345905;28;980;-74
2021/11/06 00:13:54;;;;;;;;;;;;;;;;;;345684;28;1455;-73
2021/11/06 00:14:11;;;;;;;;;;;;;;;;;;345882;28;1040;-74
2021/11/06 00:14:21;;;;;;;;;;;;;;;;;;345876;28;1008;-74
2021/11/06 00:14:32;;;;;;;;;;;;;;;;;;344442;28;1379;-74
2021/11/06 00:14:42;;;;;;;;;;;;;;;;;;344555;28;826;-73
2021/11/06 00:14:53;;;;;;;;;;;;;;;;;;344390;28;906;-74
2021/11/06 00:15:04;;;;;;;;;;;;;;;;;;343070;28;1413;-74
2021/11/06 00:15:15;;;;;;;;;;;;;;;;;;343141;28;803;-75
2021/11/06 00:15:25;;;;;;;;;;;;;;;;;;343158;28;1048;-74
2021/11/06 00:15:36;;;;;;;;;;;;;;;;;;343193;28;803;-74
2021/11/06 00:15:46;;;;;;;;;;;;;;;;;;343301;28;1236;-74
2021/11/06 00:15:57;;;;;;;;;;;;;;;;;;344566;28;970;-74
2021/11/06 00:16:07;;;;;;;;;;;;;;;;;;344441;28;905;-74
2021/11/06 00:16:17;;;;;;;;;;;;;;;;;;344499;28;906;-71
2021/11/06 00:16:28;;;;;;;;;;;;;;;;;;344935;28;958;-73
2021/11/06 00:16:38;;;;;;;;;;;;;;;;;;345950;28;839;-75
2021/11/06 00:16:49;;;;;;;;;;;;;;;;;;344435;28;1512;-74
2021/11/06 00:16:59;;;;;;;;;;;;;;;;;;344543;28;974;-73
2021/11/06 00:17:10;;;;;;;;;;;;;;;;;;343108;28;1401;-74
2021/11/06 00:17:20;;;;;;;;;;;;;;;;;;343101;28;1040;-75
2021/11/06 00:17:57;;;;;;;;;;;;;;;;;;345858;28;981;-74
2021/11/06 00:18:07;;;;;;;;;;;;;;;;;;344579;28;917;-74
2021/11/06 00:18:17;;;;;;;;;;;;;;;;;;342781;28;1328;-74
2021/11/06 00:18:28;;;;;;;;;;;;;;;;;;341733;28;1264;-74
2021/11/06 00:18:38;;;;;;;;;;;;;;;;;;341825;29;922;-74
2021/11/06 00:18:54;;;;;;;;;;;;;;;;;;341856;29;989;-74
2021/11/06 00:19:04;;;;;;;;;;;;;;;;;;341882;29;973;-74
2021/11/06 00:19:35;;;;;;;;;;;;;;;;;;341749;29;950;-74
2021/11/06 00:19:46;;;;;;;;;;;;;;;;;;341877;29;1037;-74
2021/11/06 00:19:56;;;;;;;;;;;;;;;;;;341791;29;855;-75
2021/11/06 00:20:07;;;;;;;;;;;;;;;;;;342878;28;926;-74
2021/11/06 00:20:33;;;;;;;;;;;;;;;;;;344469;28;886;-74
2021/11/06 00:20:44;;;;;;;;;;;;;;;;;;347284;28;957;-75
2021/11/06 00:21:00;;;;;;;;;;;;;;;;;;345917;28;845;-75
2021/11/06 00:21:10;;;;;;;;;;;;;;;;;;344477;28;1223;-74
2021/11/06 00:21:36;;;;;;;;;;;;;;;;;;344456;28;1000;-74
2021/11/06 00:21:52;;;;;;;;;;;;;;;;;;344488;28;985;-72
2021/11/06 00:22:03;;;;;;;;;;;;;;;;;;344513;28;811;-72
2021/11/06 00:22:13;;;;;;;;;;;;;;;;;;344582;28;984;-71
2021/11/06 00:22:29;;;;;;;;;;;;;;;;;;344457;28;1734;-74
2021/11/06 00:22:40;;;;;;;;;;;;;;;;;;344451;28;1023;-73
2021/11/06 00:22:50;;;;;;;;;;;;;;;;;;344457;28;1001;-75
2021/11/06 00:23:27;;;;;;;;;;;;;;;;;;345839;28;945;-74
2021/11/06 00:23:37;;;;;;;;;;;;;;;;;;345867;28;953;-74
2021/11/06 00:23:47;;;;;;;;;;;;;;;;;;345838;28;969;-74
2021/11/06 00:24:24;;;;;;;;;;;;;;;;;;344980;28;989;-72
2021/11/06 00:24:34;;;;;;;;;;;;;;;;;;345911;28;941;-73
2021/11/06 00:24:50;;;;;;;;;;;;;;;;;;345898;28;1000;-74
2021/11/06 00:25:03;;;;;;;;;;;;;;;;;;344116;28;1271;-74
2021/11/06 00:25:19;;;;;;;;;;;;;;;;;;344393;28;977;-74
2021/11/06 00:25:30;;;;;;;;;;;;;;;;;;344530;28;838;-75
2021/11/06 00:25:41;;;;;;;;;;;;;;;;;;344568;28;818;-74
2021/11/06 00:25:51;;;;;;;;;;;;;;;;;;344557;28;972;-74
2021/11/06 00:26:27;;;;;;;;;;;;;;;;;;344518;28;945;-74
2021/11/06 00:26:38;;;;;;;;;;;;;;;;;;344538;28;936;-74
2021/11/06 00:26:51;;;;;;;;;;;;;;;;;;343121;28;1428;-73
2021/11/06 00:27:02;;;;;;;;;;;;;;;;;;343154;28;1413;-73
2021/11/06 00:27:12;;;;;;;;;;;;;;;;;;342740;28;993;-74
2021/11/06 00:27:22;;;;;;;;;;;;;;;;;;343157;28;834;-74
2021/11/06 00:27:39;;;;;;;;;;;;;;;;;;343105;28;1172;-75
2021/11/06 00:28:05;;;;;;;;;;;;;;;;;;343573;28;740;-72
2021/11/06 00:28:36;;;;;;;;;;;;;;;;;;344552;28;894;-74
2021/11/06 00:29:05;;;;;;;;;;;;;;;;;;347263;28;980;-73
2021/11/06 00:29:21;;;;;;;;;;;;;;;;;;347180;28;818;-75
2021/11/06 00:29:46;;;;;;;;;;;;;;;;;;346076;28;904;-74
2021/11/06 00:30:07;;;;;;;;;;;;;;;;;;345790;28;857;-74
2021/11/06 00:30:18;;;;;;;;;;;;;;;;;;345509;28;1152;-75
2021/11/06 00:30:28;;;;;;;;;;;;;;;;;;345426;28;1026;-74
2021/11/06 00:30:39;;;;;;;;;;;;;;;;;;345853;28;1012;-74
2021/11/06 00:30:49;;;;;;;;;;;;;;;;;;345895;28;900;-75
2021/11/06 00:31:06;;;;;;;;;;;;;;;;;;344414;28;1507;-73
2021/11/06 00:31:16;;;;;;;;;;;;;;;;;;344473;28;838;-72
2021/11/06 00:31:26;;;;;;;;;;;;;;;;;;344548;28;810;-74
2021/11/06 00:31:37;;;;;;;;;;;;;;;;;;344421;28;806;-73
2021/11/06 00:31:48;;;;;;;;;;;;;;;;;;344536;28;961;-74
2021/11/06 00:31:58;;;;;;;;;;;;;;;;;;343101;28;1168;-73
2021/11/06 00:32:09;;;;;;;;;;;;;;;;;;343221;28;949;-74
2021/11/06 00:32:20;;;;;;;;;;;;;;;;;;344381;28;1963;-73
2021/11/06 00:32:30;;;;;;;;;;;;;;;;;;342941;28;943;-74
2021/11/06 00:32:41;;;;;;;;;;;;;;;;;;343108;28;1630;-73
2021/11/06 00:32:51;;;;;;;;;;;;;;;;;;343129;28;937;-73
2021/11/06 00:33:02;;;;;;;;;;;;;;;;;;343833;28;969;-73
2021/11/06 00:33:12;;;;;;;;;;;;;;;;;;344503;28;803;-74
2021/11/06 00:33:22;;;;;;;;;;;;;;;;;;344509;28;866;-74
2021/11/06 00:33:48;;;;;;;;;;;;;;;;;;344467;28;865;-74
2021/11/06 00:34:05;;;;;;;;;;;;;;;;;;345881;28;996;-74
2021/11/06 00:34:31;;;;;;;;;;;;;;;;;;345864;28;810;-74
2021/11/06 00:34:42;;;;;;;;;;;;;;;;;;345926;28;897;-74
2021/11/06 00:34:58;;;;;;;;;;;;;;;;;;345711;28;1217;-74
2021/11/06 00:35:15;;;;;;;;;;;;;;;;;;345789;28;810;-72
2021/11/06 00:35:41;;;;;;;;;;;;;;;;;;345448;28;997;-74
2021/11/06 00:35:51;;;;;;;;;;;;;;;;;;344506;28;1024;-74
2021/11/06 00:36:01;;;;;;;;;;;;;;;;;;344424;28;858;-73
2021/11/06 00:36:12;;;;;;;;;;;;;;;;;;344550;28;972;-72
2021/11/06 00:36:24;;;;;;;;;;;;;;;;;;343095;28;1308;-73
2021/11/06 00:36:34;;;;;;;;;;;;;;;;;;343178;28;1025;-74
2021/11/06 00:36:45;;;;;;;;;;;;;;;;;;343348;28;938;-74
2021/11/06 00:36:55;;;;;;;;;;;;;;;;;;344495;28;965;-74
2021/11/06 00:37:05;;;;;;;;;;;;;;;;;;344545;28;981;-74
2021/11/06 00:37:17;;;;;;;;;;;;;;;;;;344463;28;818;-74
2021/11/06 00:38:02;;;;;;;;;;;;;;;;;;344534;28;823;-72
2021/11/06 00:38:18;;;;;;;;;;;;;;;;;;345685;28;898;-74
2021/11/06 00:38:28;;;;;;;;;;;;;;;;;;347280;28;809;-74
2021/11/06 00:38:39;;;;;;;;;;;;;;;;;;347240;28;1043;-74
2021/11/06 00:38:49;;;;;;;;;;;;;;;;;;345824;28;1036;-75
2021/11/06 00:39:00;;;;;;;;;;;;;;;;;;345877;28;862;-74
2021/11/06 00:39:11;;;;;;;;;;;;;;;;;;345825;28;783;-74
2021/11/06 00:39:21;;;;;;;;;;;;;;;;;;345757;28;977;-74
2021/11/06 00:39:34;;;;;;;;;;;;;;;;;;345868;28;814;-73
2021/11/06 00:39:50;;;;;;;;;;;;;;;;;;345877;28;1001;-73
2021/11/06 00:40:08;;;;;;;;;;;;;;;;;;345819;28;1072;-72
2021/11/06 00:40:18;;;;;;;;;;;;;;;;;;344363;28;1448;-74
2021/11/06 00:40:29;;;;;;;;;;;;;;;;;;344290;28;953;-73
2021/11/06 00:40:39;;;;;;;;;;;;;;;;;;344201;28;1249;-73
2021/11/06 00:40:49;;;;;;;;;;;;;;;;;;345748;28;969;-75
2021/11/06 00:41:00;;;;;;;;;;;;;;;;;;345745;28;1321;-73
2021/11/06 00:41:10;;;;;;;;;;;;;;;;;;345889;28;826;-73
2021/11/06 00:41:20;;;;;;;;;;;;;;;;;;343999;28;1254;-75
2021/11/06 00:41:31;;;;;;;;;;;;;;;;;;343162;28;1016;-74
2021/11/06 00:41:42;;;;;;;;;;;;;;;;;;343190;28;973;-74
2021/11/06 00:41:52;;;;;;;;;;;;;;;;;;343154;28;810;-74
2021/11/06 00:42:03;;;;;;;;;;;;;;;;;;344046;28;1247;-74
2021/11/06 00:42:13;;;;;;;;;;;;;;;;;;344468;28;795;-75
2021/11/06 00:42:24;;;;;;;;;;;;;;;;;;344570;28;865;-74
2021/11/06 00:42:34;;;;;;;;;;;;;;;;;;344185;28;948;-73
2021/11/06 00:42:51;;;;;;;;;;;;;;;;;;342944;28;1431;-75
2021/11/06 00:43:07;;;;;;;;;;;;;;;;;;341744;29;1175;-72
2021/11/06 00:43:17;;;;;;;;;;;;;;;;;;341733;29;819;-72
2021/11/06 00:43:28;;;;;;;;;;;;;;;;;;341190;29;1427;-72
2021/11/06 00:43:39;;;;;;;;;;;;;;;;;;340071;29;1238;-72
2021/11/06 00:43:49;;;;;;;;;;;;;;;;;;341906;29;835;-74
2021/11/06 00:44:00;;;;;;;;;;;;;;;;;;342627;28;862;-73
2021/11/06 00:44:10;;;;;;;;;;;;;;;;;;343166;28;945;-74
2021/11/06 00:44:22;;;;;;;;;;;;;;;;;;343159;28;973;-74
2021/11/06 00:44:59;;;;;;;;;;;;;;;;;;345224;28;827;-73
2021/11/06 00:45:09;;;;;;;;;;;;;;;;;;345549;28;1030;-74
2021/11/06 00:45:20;;;;;;;;;;;;;;;;;;345519;28;933;-73
2021/11/06 00:45:30;;;;;;;;;;;;;;;;;;345774;28;973;-74
2021/11/06 00:45:42;;;;;;;;;;;;;;;;;;345789;28;976;-72
2021/11/06 00:45:55;;;;;;;;;;;;;;;;;;345924;28;854;-74
2021/11/06 00:46:05;;;;;;;;;;;;;;;;;;344519;28;1366;-74
2021/11/06 00:46:42;;;;;;;;;;;;;;;;;;343036;28;1179;-74
2021/11/06 00:46:52;;;;;;;;;;;;;;;;;;343086;28;1032;-74
2021/11/06 00:47:03;;;;;;;;;;;;;;;;;;343131;28;972;-74
2021/11/06 00:47:13;;;;;;;;;;;;;;;;;;343040;28;806;-73
2021/11/06 00:47:23;;;;;;;;;;;;;;;;;;343108;28;989;-74
2021/11/06 00:47:37;;;;;;;;;;;;;;;;;;343753;28;941;-74
2021/11/06 00:47:48;;;;;;;;;;;;;;;;;;344562;28;810;-74
2021/11/06 00:48:07;;;;;;;;;;;;;;;;;;343257;28;1224;-74
2021/11/06 00:48:18;;;;;;;;;;;;;;;;;;343096;28;1545;-72
2021/11/06 00:48:28;;;;;;;;;;;;;;;;;;343173;28;897;-72
2021/11/06 00:49:09;;;;;;;;;;;;;;;;;;342530;28;1390;-73
2021/11/06 00:49:26;;;;;;;;;;;;;;;;;;343079;28;929;-72
2021/11/06 00:49:37;;;;;;;;;;;;;;;;;;343942;28;1267;-71
2021/11/06 00:49:47;;;;;;;;;;;;;;;;;;343154;28;830;-75
2021/11/06 00:49:57;;;;;;;;;;;;;;;;;;343171;28;875;-73
2021/11/06 00:50:09;;;;;;;;;;;;;;;;;;341879;29;827;-73
2021/11/06 00:50:20;;;;;;;;;;;;;;;;;;341866;29;910;-73
2021/11/06 00:50:30;;;;;;;;;;;;;;;;;;341588;28;972;-74
2021/11/06 00:50:40;;;;;;;;;;;;;;;;;;341614;29;1266;-75
2021/11/06 00:50:51;;;;;;;;;;;;;;;;;;341433;29;961;-74
2021/11/06 00:51:01;;;;;;;;;;;;;;;;;;341879;29;978;-74
2021/11/06 00:51:15;;;;;;;;;;;;;;;;;;341740;29;831;-72
2021/11/06 00:51:25;;;;;;;;;;;;;;;;;;341823;29;985;-74
2021/11/06 00:51:36;;;;;;;;;;;;;;;;;;342833;28;818;-73
2021/11/06 00:51:46;;;;;;;;;;;;;;;;;;343928;28;993;-74
2021/11/06 00:51:56;;;;;;;;;;;;;;;;;;342993;28;1605;-74
2021/11/06 00:52:34;;;;;;;;;;;;;;;;;;343186;28;810;-73
2021/11/06 00:52:45;;;;;;;;;;;;;;;;;;343209;28;956;-73
2021/11/06 00:52:56;;;;;;;;;;;;;;;;;;343166;28;906;-74
2021/11/06 00:53:07;;;;;;;;;;;;;;;;;;341698;29;1320;-74
2021/11/06 00:53:23;;;;;;;;;;;;;;;;;;341785;29;830;-73
2021/11/06 00:53:33;;;;;;;;;;;;;;;;;;341838;29;964;-71
2021/11/06 00:53:44;;;;;;;;;;;;;;;;;;341776;29;965;-72
2021/11/06 00:53:54;;;;;;;;;;;;;;;;;;343486;28;1281;-71
2021/11/06 00:54:04;;;;;;;;;;;;;;;;;;344513;28;794;-72
2021/11/06 00:54:15;;;;;;;;;;;;;;;;;;344479;28;1126;-74
2021/11/06 00:54:25;;;;;;;;;;;;;;;;;;344490;28;1048;-74
2021/11/06 00:54:36;;;;;;;;;;;;;;;;;;344505;28;964;-73
2021/11/06 00:54:46;;;;;;;;;;;;;;;;;;344426;28;988;-74
2021/11/06 00:54:56;;;;;;;;;;;;;;;;;;345824;28;878;-73
2021/11/06 00:55:07;;;;;;;;;;;;;;;;;;347150;28;806;-73
2021/11/06 00:55:18;;;;;;;;;;;;;;;;;;347062;28;988;-72
2021/11/06 00:55:28;;;;;;;;;;;;;;;;;;347210;28;825;-72
2021/11/06 00:55:39;;;;;;;;;;;;;;;;;;345830;28;819;-72
2021/11/06 00:55:49;;;;;;;;;;;;;;;;;;345155;28;941;-72
2021/11/06 00:55:59;;;;;;;;;;;;;;;;;;345644;28;1262;-72
2021/11/06 00:56:10;;;;;;;;;;;;;;;;;;345517;28;928;-72
2021/11/06 00:56:21;;;;;;;;;;;;;;;;;;345856;28;1036;-72
2021/11/06 00:56:31;;;;;;;;;;;;;;;;;;345788;28;1020;-72
2021/11/06 00:56:41;;;;;;;;;;;;;;;;;;345883;28;794;-71
2021/11/06 00:56:52;;;;;;;;;;;;;;;;;;345576;28;954;-71
2021/11/06 00:57:02;;;;;;;;;;;;;;;;;;345890;28;822;-72
2021/11/06 00:57:29;;;;;;;;;;;;;;;;;;345820;28;873;-74
2021/11/06 00:57:40;;;;;;;;;;;;;;;;;;344524;28;988;-72
2021/11/06 00:57:50;;;;;;;;;;;;;;;;;;344475;28;973;-73
2021/11/06 00:58:01;;;;;;;;;;;;;;;;;;344497;28;1020;-72
2021/11/06 00:58:11;;;;;;;;;;;;;;;;;;344387;28;980;-73
2021/11/06 00:58:21;;;;;;;;;;;;;;;;;;344456;28;960;-72
2021/11/06 00:58:32;;;;;;;;;;;;;;;;;;344463;28;858;-73
2021/11/06 00:58:42;;;;;;;;;;;;;;;;;;344511;28;909;-71
2021/11/06 00:58:52;;;;;;;;;;;;;;;;;;344256;28;1169;-72
2021/11/06 00:59:03;;;;;;;;;;;;;;;;;;344588;28;881;-72
2021/11/06 00:59:13;;;;;;;;;;;;;;;;;;345653;28;822;-71
2021/11/06 00:59:26;;;;;;;;;;;;;;;;;;344502;28;866;-73
2021/11/06 00:59:37;;;;;;;;;;;;;;;;;;344466;28;984;-74
2021/11/06 00:59:47;;;;;;;;;;;;;;;;;;344507;28;894;-72
2021/11/06 00:59:57;;;;;;;;;;;;;;;;;;344474;28;968;-73
2021/11/06 01:00:15;;;;;;;;;;;;;;;;;;344617;28;834;-75
2021/11/06 01:00:26;;;;;;;;;;;;;;;;;;345676;28;862;-73
2021/11/06 01:00:36;;;;;;;;;;;;;;;;;;345830;28;866;-72
2021/11/06 01:00:47;;;;;;;;;;;;;;;;;;345709;28;842;-73
2021/11/06 01:00:57;;;;;;;;;;;;;;;;;;345702;28;814;-72
2021/11/06 01:01:13;;;;;;;;;;;;;;;;;;344419;28;1537;-71
2021/11/06 01:01:30;;;;;;;;;;;;;;;;;;345860;28;901;-72
2021/11/06 01:01:40;;;;;;;;;;;;;;;;;;345899;28;826;-73
2021/11/06 01:01:51;;;;;;;;;;;;;;;;;;345814;28;917;-73
2021/11/06 01:02:01;;;;;;;;;;;;;;;;;;345820;28;838;-74
2021/11/06 01:02:12;;;;;;;;;;;;;;;;;;345841;28;909;-74
2021/11/06 01:02:22;;;;;;;;;;;;;;;;;;345883;28;901;-73
2021/11/06 01:02:33;;;;;;;;;;;;;;;;;;345865;28;889;-75
2021/11/06 01:02:43;;;;;;;;;;;;;;;;;;345419;28;928;-75
2021/11/06 01:02:54;;;;;;;;;;;;;;;;;;344457;28;909;-74
2021/11/06 01:03:04;;;;;;;;;;;;;;;;;;344504;28;866;-73
2021/11/06 01:03:14;;;;;;;;;;;;;;;;;;344400;28;897;-73
2021/11/06 01:03:25;;;;;;;;;;;;;;;;;;344158;28;976;-74
2021/11/06 01:03:36;;;;;;;;;;;;;;;;;;344497;28;884;-74
2021/11/06 01:03:46;;;;;;;;;;;;;;;;;;344493;28;827;-74
2021/11/06 01:03:58;;;;;;;;;;;;;;;;;;344445;28;998;-74
2021/11/06 01:04:34;;;;;;;;;;;;;;;;;;344369;28;1679;-74
2021/11/06 01:04:44;;;;;;;;;;;;;;;;;;343146;28;1021;-74
2021/11/06 01:05:03;;;;;;;;;;;;;;;;;;344380;28;977;-75
2021/11/06 01:05:39;;;;;;;;;;;;;;;;;;344497;28;968;-73
2021/11/06 01:06:15;;;;;;;;;;;;;;;;;;344452;28;799;-75
2021/11/06 01:06:32;;;;;;;;;;;;;;;;;;345400;28;835;-74
2021/11/06 01:06:49;;;;;;;;;;;;;;;;;;345784;28;925;-74
2021/11/06 01:06:59;;;;;;;;;;;;;;;;;;345824;28;905;-75
2021/11/06 01:07:09;;;;;;;;;;;;;;;;;;345728;28;989;-75
2021/11/06 01:07:20;;;;;;;;;;;;;;;;;;345771;28;997;-74
2021/11/06 01:07:30;;;;;;;;;;;;;;;;;;345893;28;902;-73
2021/11/06 01:07:41;;;;;;;;;;;;;;;;;;345881;28;842;-74
2021/11/06 01:07:51;;;;;;;;;;;;;;;;;;345860;28;888;-75
2021/11/06 01:08:44;;;;;;;;;;;;;;;;;;345822;28;897;-75
2021/11/06 01:08:54;;;;;;;;;;;;;;;;;;344416;28;1278;-74
2021/11/06 01:09:10;;;;;;;;;;;;;;;;;;344319;28;1319;-74
2021/11/06 01:09:21;;;;;;;;;;;;;;;;;;344190;28;1205;-75
2021/11/06 01:09:31;;;;;;;;;;;;;;;;;;345744;28;885;-75
2021/11/06 01:09:41;;;;;;;;;;;;;;;;;;345784;28;925;-75
2021/11/06 01:09:52;;;;;;;;;;;;;;;;;;344451;28;1417;-75
2021/11/06 01:10:04;;;;;;;;;;;;;;;;;;344503;28;898;-74
2021/11/06 01:10:15;;;;;;;;;;;;;;;;;;344560;28;881;-75
2021/11/06 01:10:52;;;;;;;;;;;;;;;;;;344416;28;949;-74
2021/11/06 01:11:02;;;;;;;;;;;;;;;;;;344437;28;807;-74
2021/11/06 01:11:12;;;;;;;;;;;;;;;;;;343110;28;964;-73
2021/11/06 01:11:23;;;;;;;;;;;;;;;;;;343124;28;893;-74
2021/11/06 01:11:34;;;;;;;;;;;;;;;;;;342912;28;1430;-74
2021/11/06 01:11:45;;;;;;;;;;;;;;;;;;343404;28;814;-75
2021/11/06 01:11:55;;;;;;;;;;;;;;;;;;344389;28;1177;-74
2021/11/06 01:12:06;;;;;;;;;;;;;;;;;;344484;28;957;-75
2021/11/06 01:12:16;;;;;;;;;;;;;;;;;;344388;28;1902;-75
2021/11/06 01:12:27;;;;;;;;;;;;;;;;;;344438;28;912;-75
2021/11/06 01:12:37;;;;;;;;;;;;;;;;;;343032;28;1505;-75
2021/11/06 01:12:56;;;;;;;;;;;;;;;;;;343142;28;953;-74
2021/11/06 01:13:07;;;;;;;;;;;;;;;;;;343538;28;1040;-74
2021/11/06 01:13:18;;;;;;;;;;;;;;;;;;344299;28;1397;-74
2021/11/06 01:13:28;;;;;;;;;;;;;;;;;;342972;28;1123;-75
2021/11/06 01:13:39;;;;;;;;;;;;;;;;;;343022;28;962;-73
2021/11/06 01:13:49;;;;;;;;;;;;;;;;;;343061;28;1388;-74
2021/11/06 01:14:00;;;;;;;;;;;;;;;;;;343162;28;961;-74
2021/11/06 01:14:12;;;;;;;;;;;;;;;;;;343164;28;811;-74
2021/11/06 01:14:22;;;;;;;;;;;;;;;;;;343100;28;839;-74
2021/11/06 01:14:33;;;;;;;;;;;;;;;;;;343748;28;905;-75
2021/11/06 01:14:49;;;;;;;;;;;;;;;;;;344448;28;1025;-74
2021/11/06 01:15:00;;;;;;;;;;;;;;;;;;343164;28;713;-74
2021/11/06 01:15:26;;;;;;;;;;;;;;;;;;341827;29;1040;-74
2021/11/06 01:15:36;;;;;;;;;;;;;;;;;;343519;28;1343;-74
2021/11/06 01:15:47;;;;;;;;;;;;;;;;;;342350;28;998;-74
2021/11/06 01:15:57;;;;;;;;;;;;;;;;;;343070;28;934;-74
2021/11/06 01:16:45;;;;;;;;;;;;;;;;;;343134;28;901;-74
2021/11/06 01:16:56;;;;;;;;;;;;;;;;;;343098;28;730;-74
2021/11/06 01:17:06;;;;;;;;;;;;;;;;;;344489;28;949;-74
2021/11/06 01:17:28;;;;;;;;;;;;;;;;;;344397;28;950;-74
2021/11/06 01:17:39;;;;;;;;;;;;;;;;;;344351;28;1291;-74
2021/11/06 01:17:49;;;;;;;;;;;;;;;;;;344496;28;1044;-75
2021/11/06 01:18:00;;;;;;;;;;;;;;;;;;344538;28;913;-73
2021/11/06 01:18:10;;;;;;;;;;;;;;;;;;345714;28;740;-74
2021/11/06 01:18:26;;;;;;;;;;;;;;;;;;344043;28;1057;-74
2021/11/06 01:18:37;;;;;;;;;;;;;;;;;;344472;28;984;-74
2021/11/06 01:18:47;;;;;;;;;;;;;;;;;;344487;28;953;-76
2021/11/06 01:19:24;;;;;;;;;;;;;;;;;;343116;28;1020;-74
2021/11/06 01:19:35;;;;;;;;;;;;;;;;;;343131;28;981;-74
2021/11/06 01:19:45;;;;;;;;;;;;;;;;;;343118;28;946;-74
2021/11/06 01:20:03;;;;;;;;;;;;;;;;;;344500;28;933;-74
2021/11/06 01:20:15;;;;;;;;;;;;;;;;;;344673;28;985;-74
2021/11/06 01:20:25;;;;;;;;;;;;;;;;;;344290;28;1169;-74
2021/11/06 01:20:35;;;;;;;;;;;;;;;;;;344441;28;930;-75
2021/11/06 01:21:12;;;;;;;;;;;;;;;;;;345719;28;822;-74
2021/11/06 01:21:48;;;;;;;;;;;;;;;;;;345788;28;740;-74
2021/11/06 01:21:59;;;;;;;;;;;;;;;;;;345823;28;815;-73
2021/11/06 01:22:09;;;;;;;;;;;;;;;;;;345754;28;917;-74
2021/11/06 01:22:19;;;;;;;;;;;;;;;;;;345821;28;913;-74
2021/11/06 01:22:30;;;;;;;;;;;;;;;;;;345687;28;1414;-74
2021/11/06 01:22:40;;;;;;;;;;;;;;;;;;345384;28;969;-74
2021/11/06 01:22:53;;;;;;;;;;;;;;;;;;344422;28;973;-74
2021/11/06 01:24:02;;;;;;;;;;;;;;;;;;343000;28;1261;-74
2021/11/06 01:24:12;;;;;;;;;;;;;;;;;;343125;28;973;-73
2021/11/06 01:24:22;;;;;;;;;;;;;;;;;;343318;28;818;-74
2021/11/06 01:24:33;;;;;;;;;;;;;;;;;;343988;28;1006;-74
2021/11/06 01:24:43;;;;;;;;;;;;;;;;;;344651;28;901;-75
2021/11/06 01:25:02;;;;;;;;;;;;;;;;;;345734;28;937;-74
2021/11/06 01:25:18;;;;;;;;;;;;;;;;;;344249;28;1262;-73
2021/11/06 01:25:28;;;;;;;;;;;;;;;;;;342968;28;1261;-75
2021/11/06 01:25:39;;;;;;;;;;;;;;;;;;342989;28;1150;-75
2021/11/06 01:25:50;;;;;;;;;;;;;;;;;;343114;28;878;-73
2021/11/06 01:26:02;;;;;;;;;;;;;;;;;;343864;28;1059;-74
2021/11/06 01:26:13;;;;;;;;;;;;;;;;;;344483;28;1001;-73
2021/11/06 01:26:23;;;;;;;;;;;;;;;;;;342913;28;1299;-74
2021/11/06 01:26:34;;;;;;;;;;;;;;;;;;344342;28;936;-74
2021/11/06 01:26:44;;;;;;;;;;;;;;;;;;343095;28;996;-74
2021/11/06 01:26:55;;;;;;;;;;;;;;;;;;343059;28;1047;-74
2021/11/06 01:27:09;;;;;;;;;;;;;;;;;;343055;28;1382;-74
2021/11/06 01:27:22;;;;;;;;;;;;;;;;;;343067;28;977;-73
2021/11/06 01:27:33;;;;;;;;;;;;;;;;;;343113;28;1110;-74
2021/11/06 01:27:44;;;;;;;;;;;;;;;;;;343083;28;952;-74
2021/11/06 01:27:54;;;;;;;;;;;;;;;;;;341668;29;1655;-74
2021/11/06 01:28:05;;;;;;;;;;;;;;;;;;341847;29;795;-74
2021/11/06 01:28:15;;;;;;;;;;;;;;;;;;340737;28;993;-75
2021/11/06 01:28:26;;;;;;;;;;;;;;;;;;343262;28;776;-74
2021/11/06 01:28:42;;;;;;;;;;;;;;;;;;342029;28;1398;-74
2021/11/06 01:28:53;;;;;;;;;;;;;;;;;;341781;29;878;-74
2021/11/06 01:29:03;;;;;;;;;;;;;;;;;;341801;29;854;-74
2021/11/06 01:29:13;;;;;;;;;;;;;;;;;;341664;29;874;-74
2021/11/06 01:29:24;;;;;;;;;;;;;;;;;;340458;29;934;-75
2021/11/06 01:29:34;;;;;;;;;;;;;;;;;;341672;29;1404;-74
2021/11/06 01:29:46;;;;;;;;;;;;;;;;;;342541;28;989;-74
2021/11/06 01:29:56;;;;;;;;;;;;;;;;;;343014;28;1721;-74
2021/11/06 01:30:19;;;;;;;;;;;;;;;;;;342867;28;1028;-74
2021/11/06 01:30:35;;;;;;;;;;;;;;;;;;343381;28;965;-75
2021/11/06 01:30:51;;;;;;;;;;;;;;;;;;344413;28;1067;-73
2021/11/06 01:31:02;;;;;;;;;;;;;;;;;;344462;28;949;-74
2021/11/06 01:31:12;;;;;;;;;;;;;;;;;;344450;28;865;-75
2021/11/06 01:31:23;;;;;;;;;;;;;;;;;;345401;28;799;-74
2021/11/06 01:31:39;;;;;;;;;;;;;;;;;;345659;28;912;-74
2021/11/06 01:31:51;;;;;;;;;;;;;;;;;;345833;28;909;-74
2021/11/06 01:32:02;;;;;;;;;;;;;;;;;;345959;28;877;-74
2021/11/06 01:32:12;;;;;;;;;;;;;;;;;;345883;28;1059;-74
2021/11/06 01:32:22;;;;;;;;;;;;;;;;;;345850;28;1957;-75
2021/11/06 01:32:59;;;;;;;;;;;;;;;;;;345895;28;928;-74
2021/11/06 01:33:09;;;;;;;;;;;;;;;;;;345872;28;877;-74
2021/11/06 01:33:19;;;;;;;;;;;;;;;;;;345742;28;926;-74
2021/11/06 01:33:30;;;;;;;;;;;;;;;;;;345921;28;845;-74
2021/11/06 01:33:40;;;;;;;;;;;;;;;;;;345770;28;943;-74
2021/11/06 01:33:50;;;;;;;;;;;;;;;;;;345854;28;925;-74
2021/11/06 01:34:01;;;;;;;;;;;;;;;;;;345882;28;834;-74
2021/11/06 01:34:12;;;;;;;;;;;;;;;;;;345866;28;972;-75
2021/11/06 01:34:22;;;;;;;;;;;;;;;;;;345858;28;1040;-75
2021/11/06 01:34:33;;;;;;;;;;;;;;;;;;345896;28;1024;-74
2021/11/06 01:34:44;;;;;;;;;;;;;;;;;;345688;28;1435;-74
2021/11/06 01:34:54;;;;;;;;;;;;;;;;;;345822;28;833;-75
2021/11/06 01:35:05;;;;;;;;;;;;;;;;;;345813;28;889;-75
2021/11/06 01:35:16;;;;;;;;;;;;;;;;;;345636;28;838;-75
2021/11/06 01:35:26;;;;;;;;;;;;;;;;;;345774;28;985;-75
2021/11/06 01:35:37;;;;;;;;;;;;;;;;;;344454;28;1021;-75
2021/11/06 01:35:47;;;;;;;;;;;;;;;;;;344409;28;958;-75
2021/11/06 01:36:07;;;;;;;;;;;;;;;;;;344372;28;870;-74
2021/11/06 01:36:24;;;;;;;;;;;;;;;;;;344452;28;846;-74
2021/11/06 01:36:34;;;;;;;;;;;;;;;;;;344357;28;1016;-73